Terminal Aerodrome Forecast
Issued by NWS

Home | Current Version | Previous Version | Text Only | Print | Product List | Glossary On
Versions: 1 2 3 4 5 6 7 8 9 10 11 12
063
FTUS44 KLIX 301743
TAFMSY
TAF
KMSY 301743Z 3018/3118 01007KT P6SM FEW035 SCT040
      TEMPO 3018/3022 VRB15G27KT 2SM TSRA BKN025CB BKN050
     FM302200 22006KT P6SM VCSH SCT050 BKN130
     FM310300 21005KT P6SM FEW050 SCT150=

USA.gov is the U.S. government's official web portal to all federal, state and local government web resources and services.